Time;durP1;ratioP1;P1;durP2;ratioP2;P2;SDS_P1;SDS_P2;PMS_P1;PMS_P2;Temp;Humidity;BMP_temperature;BMP_pressure;BME280_temperature;BME280_humidity;BME280_pressure;Samples;Min_cycle;Max_cycle;Signal;HPM_P1;HPM_P2
2021/03/20 00:01:39;;;;;;;1.92;0.70;;;17.60;57.20;;;;;;10489300;28;20036;-61
2021/03/20 00:06:44;;;;;;;1.25;0.50;;;17.60;57.20;;;;;;10462718;28;20121;-61
2021/03/20 00:11:47;;;;;;;1.58;0.70;;;17.60;57.10;;;;;;10490588;28;20077;-61
2021/03/20 00:16:48;;;;;;;0.90;0.40;;;17.60;57.10;;;;;;10501548;28;20373;-61
2021/03/20 00:21:49;;;;;;;1.20;0.52;;;17.60;57.10;;;;;;10497673;28;20119;-61
2021/03/20 00:26:50;;;;;;;2.05;0.43;;;17.60;57.10;;;;;;10497228;28;20120;-61
2021/03/20 00:31:51;;;;;;;1.17;0.60;;;17.60;57.10;;;;;;10462954;28;20525;-61
2021/03/20 00:36:51;;;;;;;1.50;0.40;;;17.60;57.10;;;;;;10459637;28;20104;-61
2021/03/20 00:41:52;;;;;;;1.40;0.75;;;17.60;57.10;;;;;;10459546;28;20041;-62
2021/03/20 00:46:53;;;;;;;1.98;0.60;;;17.60;57.10;;;;;;10459075;28;20064;-62
2021/03/20 00:51:55;;;;;;;0.68;0.45;;;17.60;57.00;;;;;;10487251;28;20107;-61
2021/03/20 00:56:56;;;;;;;1.85;0.80;;;17.60;57.00;;;;;;10500465;28;20074;-61
2021/03/20 01:01:56;;;;;;;0.45;0.30;;;17.60;57.00;;;;;;10461245;28;20044;-62
2021/03/20 01:06:57;;;;;;;2.20;0.68;;;17.60;57.00;;;;;;10491965;28;20086;-62
2021/03/20 01:11:59;;;;;;;2.10;0.70;;;17.60;56.90;;;;;;10460690;28;20107;-62
2021/03/20 01:17:00;;;;;;;0.55;0.45;;;17.60;56.90;;;;;;10457759;28;20064;-60
2021/03/20 01:22:01;;;;;;;2.75;0.90;;;17.60;56.90;;;;;;10493507;28;20342;-60
2021/03/20 01:27:02;;;;;;;1.58;0.75;;;17.60;56.90;;;;;;10498964;28;20504;-60
2021/03/20 01:32:03;;;;;;;0.73;0.40;;;17.60;56.90;;;;;;10458975;28;20390;-60
2021/03/20 01:37:04;;;;;;;2.70;0.50;;;17.60;56.80;;;;;;10457034;28;20504;-61
2021/03/20 01:42:07;;;;;;;1.00;0.32;;;17.60;56.90;;;;;;10498011;28;20036;-60
2021/03/20 01:47:15;;;;;;;0.93;0.40;;;17.60;56.90;;;;;;10497627;28;20465;-60
2021/03/20 01:52:32;;;;;;;1.10;0.60;;;17.60;57.50;;;;;;10469128;28;20037;-60
2021/03/20 01:57:41;;;;;;;0.80;0.32;;;17.60;56.90;;;;;;10460743;28;20091;-61
2021/03/20 02:02:42;;;;;;;;;;;17.60;56.90;;;;;;10455444;28;20067;-61
2021/03/20 02:07:43;;;;;;;1.30;0.73;;;17.50;56.80;;;;;;10456086;28;19916;-61
2021/03/20 02:12:48;;;;;;;1.83;0.50;;;17.60;57.00;;;;;;10495822;28;20020;-61
2021/03/20 02:18:06;;;;;;;2.08;0.70;;;17.50;56.80;;;;;;10488840;28;20064;-61
2021/03/20 02:23:10;;;;;;;0.55;0.32;;;17.60;56.90;;;;;;10459162;28;20630;-61
2021/03/20 02:28:31;;;;;;;0.98;0.60;;;17.50;56.80;;;;;;10490529;28;20055;-61
2021/03/20 02:33:37;;;;;;;1.05;0.50;;;17.50;56.80;;;;;;10455765;28;20064;-61
2021/03/20 02:38:50;;;;;;;1.55;0.80;;;17.60;56.70;;;;;;10453918;28;20385;-61
2021/03/20 02:44:08;;;;;;;1.85;0.50;;;17.60;57.90;;;;;;10495648;28;20434;-61
2021/03/20 02:49:49;;;;;;;1.05;0.88;;;17.60;58.30;;;;;;10484506;28;20132;-61
2021/03/20 02:55:22;;;;;;;1.13;0.50;;;17.70;59.10;;;;;;10479223;28;20044;-61
2021/03/20 03:00:32;;;;;;;0.98;0.43;;;17.60;59.40;;;;;;10470631;28;20087;-61
2021/03/20 03:05:46;;;;;;;1.13;0.60;;;17.60;59.50;;;;;;10453862;28;20033;-61
2021/03/20 03:10:59;;;;;;;1.48;0.63;;;17.60;60.20;;;;;;10476895;28;20036;-61
2021/03/20 03:16:21;;;;;;;1.40;0.50;;;17.60;59.60;;;;;;10461729;28;20409;-61
2021/03/20 03:21:29;;;;;;;0.75;0.50;;;17.60;59.60;;;;;;10484089;28;20032;-61
2021/03/20 03:26:39;;;;;;;0.60;0.30;;;17.60;59.50;;;;;;10495960;28;20541;-61
2021/03/20 03:32:04;;;;;;;0.63;0.40;;;17.60;59.60;;;;;;10465813;28;20121;-61
2021/03/20 03:37:11;;;;;;;0.88;0.57;;;17.60;59.50;;;;;;10474640;28;20355;-61
2021/03/20 03:42:15;;;;;;;0.80;0.50;;;17.60;59.40;;;;;;10487933;28;20481;-61
2021/03/20 03:47:26;;;;;;;1.42;0.50;;;17.60;59.40;;;;;;10461456;28;20021;-61
2021/03/20 03:52:27;;;;;;;0.73;0.50;;;17.60;59.30;;;;;;10493852;28;20104;-61
2021/03/20 03:57:43;;;;;;;0.88;0.52;;;17.60;59.20;;;;;;10501657;28;20107;-61
2021/03/20 04:03:41;;;;;;;0.85;0.40;;;17.60;59.20;;;;;;10473737;28;20039;-61
2021/03/20 04:09:22;;;;;;;0.95;0.45;;;17.60;59.10;;;;;;10497481;28;20123;-61
2021/03/20 04:14:58;;;;;;;0.55;0.32;;;17.60;59.00;;;;;;10460035;28;20047;-61
2021/03/20 04:20:26;;;;;;;0.63;0.43;;;17.60;59.10;;;;;;10465273;28;20135;-61
2021/03/20 04:25:55;;;;;;;0.40;0.40;;;17.50;58.90;;;;;;10495603;28;20043;-61
2021/03/20 04:31:10;;;;;;;1.00;0.50;;;17.50;58.80;;;;;;10480864;28;20039;-61
2021/03/20 04:36:23;;;;;;;1.20;0.60;;;17.60;58.70;;;;;;10465814;28;20033;-61
2021/03/20 04:41:25;;;;;;;0.90;0.38;;;17.60;58.60;;;;;;10479716;28;20040;-61
2021/03/20 04:46:32;;;;;;;1.40;0.50;;;17.60;58.60;;;;;;10499381;28;20063;-61
2021/03/20 04:51:54;;;;;;;0.82;0.50;;;17.60;58.40;;;;;;10471300;28;20071;-61
2021/03/20 04:57:19;;;;;;;0.95;0.45;;;17.60;58.30;;;;;;10457670;28;20048;-61
2021/03/20 05:03:07;;;;;;;0.80;0.50;;;17.60;58.30;;;;;;10478264;28;20040;-61
2021/03/20 05:08:13;;;;;;;0.43;0.30;;;17.60;58.20;;;;;;10513677;28;20023;-61
2021/03/20 05:13:36;;;;;;;0.80;0.35;;;17.60;58.20;;;;;;10445373;28;20064;-61
2021/03/20 05:18:37;;;;;;;0.80;0.50;;;17.60;58.00;;;;;;10471707;28;20458;-61
2021/03/20 05:23:38;;;;;;;0.50;0.32;;;17.60;58.00;;;;;;10492491;28;20032;-62
2021/03/20 05:28:39;;;;;;;1.10;0.57;;;17.60;57.80;;;;;;10460303;28;20444;-62
2021/03/20 05:33:42;;;;;;;1.00;0.60;;;17.60;57.80;;;;;;10473139;28;20020;-62
2021/03/20 05:38:45;;;;;;;1.25;0.43;;;17.60;57.80;;;;;;10471898;28;20524;-61
2021/03/20 05:44:07;;;;;;;1.35;0.45;;;17.60;57.70;;;;;;10477754;28;20029;-61
2021/03/20 05:49:57;;;;;;;0.85;0.40;;;17.60;57.60;;;;;;10466202;28;20024;-62
2021/03/20 05:55:14;;;;;;;0.63;0.40;;;17.60;57.60;;;;;;10474276;28;20040;-62
2021/03/20 06:00:51;;;;;;;0.73;0.50;;;17.60;57.60;;;;;;10472967;28;20378;-62
2021/03/20 06:06:32;;;;;;;2.92;0.70;;;17.70;57.50;;;;;;10466272;28;20401;-62
2021/03/20 06:12:42;;;;;;;0.50;0.40;;;17.60;57.40;;;;;;10460792;28;20131;-61
2021/03/20 06:18:35;;;;;;;0.80;0.40;;;17.70;57.40;;;;;;10470709;28;20048;-61
2021/03/20 06:24:32;;;;;;;0.82;0.60;;;17.60;57.30;;;;;;10455968;28;20389;-61
2021/03/20 06:29:42;;;;;;;2.42;0.90;;;17.60;57.20;;;;;;10471272;28;20043;-61
2021/03/20 06:35:11;;;;;;;1.15;0.80;;;17.70;59.00;;;;;;10455212;28;20104;-60
2021/03/20 06:40:23;;;;;;;4.78;0.95;;;17.70;58.80;;;;;;10443794;28;20037;-60
2021/03/20 06:45:32;;;;;;;6.68;1.13;;;17.70;59.30;;;;;;10458768;28;20041;-60
2021/03/20 06:50:40;;;;;;;5.80;0.88;;;17.70;59.50;;;;;;10477608;28;20116;-59
2021/03/20 06:55:49;;;;;;;4.97;1.05;;;17.70;59.20;;;;;;10493677;28;20039;-60
2021/03/20 07:00:50;;;;;;;1.98;0.90;;;17.70;59.20;;;;;;10485819;28;20028;-63
2021/03/20 07:06:25;;;;;;;3.22;0.90;;;17.70;59.10;;;;;;10477592;28;20032;-64
2021/03/20 07:11:33;;;;;;;4.53;1.05;;;17.70;59.10;;;;;;10474316;28;20041;-67
2021/03/20 07:16:57;;;;;;;6.95;1.20;;;17.70;58.90;;;;;;10475490;28;20049;-62
2021/03/20 07:21:58;;;;;;;5.80;1.20;;;17.80;58.30;;;;;;10462036;28;20048;-62
2021/03/20 07:27:14;;;;;;;14.05;1.40;;;17.70;59.00;;;;;;10462065;28;20044;-64
2021/03/20 07:32:31;;;;;;;5.55;0.93;;;18.00;58.70;;;;;;10480439;28;20020;-60
2021/03/20 07:37:32;;;;;;;9.93;1.30;;;18.00;58.40;;;;;;10479875;28;20041;-59
2021/03/20 07:42:39;;;;;;;10.30;1.17;;;17.70;59.20;;;;;;10459263;28;20064;-60
2021/03/20 07:47:43;;;;;;;20.90;2.83;;;17.60;59.40;;;;;;10452963;28;20110;-61
2021/03/20 07:53:02;;;;;;;7.05;1.70;;;17.50;60.60;;;;;;10461026;28;20119;-60
2021/03/20 07:58:04;;;;;;;9.45;1.60;;;17.50;61.40;;;;;;10460165;28;20477;-58
2021/03/20 08:03:20;;;;;;;10.60;1.90;;;17.40;61.50;;;;;;10481418;28;20036;-61
2021/03/20 08:08:27;;;;;;;10.63;2.63;;;17.40;61.60;;;;;;10456013;28;20112;-61
2021/03/20 08:13:44;;;;;;;8.80;1.55;;;17.40;60.90;;;;;;10454010;28;20064;-61
2021/03/20 08:18:48;;;;;;;16.40;2.97;;;17.20;60.90;;;;;;10458089;28;20060;-60
2021/03/20 08:24:17;;;;;;;17.40;2.60;;;17.20;61.10;;;;;;10478563;28;20465;-60
2021/03/20 08:29:59;;;;;;;19.15;2.75;;;17.20;61.20;;;;;;10498059;28;20096;-60
2021/03/20 08:35:24;;;;;;;17.52;2.67;;;17.10;61.30;;;;;;10466456;28;20037;-60
2021/03/20 08:40:40;;;;;;;8.05;1.88;;;17.10;61.40;;;;;;10468570;28;20036;-62
2021/03/20 08:46:18;;;;;;;13.10;2.42;;;17.10;61.40;;;;;;10482898;28;20040;-61
2021/03/20 08:51:30;;;;;;;9.02;1.98;;;17.10;61.40;;;;;;10438867;28;20526;-61
2021/03/20 08:57:02;;;;;;;14.68;2.67;;;17.10;61.00;;;;;;10486837;28;20036;-59
2021/03/20 09:02:33;;;;;;;16.85;3.25;;;17.10;61.30;;;;;;10481630;28;20127;-60
2021/03/20 09:07:54;;;;;;;12.27;2.63;;;17.20;61.00;;;;;;10453192;28;20370;-61
2021/03/20 09:13:22;;;;;;;11.32;1.92;;;17.20;61.40;;;;;;10453013;28;20109;-61
2021/03/20 09:18:25;;;;;;;10.48;2.45;;;17.20;60.80;;;;;;10441470;28;20044;-59
2021/03/20 09:23:35;;;;;;;14.18;2.58;;;17.20;60.80;;;;;;10455754;28;20021;-58
2021/03/20 09:28:56;;;;;;;12.98;2.13;;;17.20;60.70;;;;;;10493061;28;20035;-59
2021/03/20 09:34:27;;;;;;;12.63;2.47;;;17.20;60.50;;;;;;10466937;28;20036;-60
2021/03/20 09:39:43;;;;;;;12.02;2.28;;;17.20;59.40;;;;;;10459201;28;20071;-60
2021/03/20 09:44:44;;;;;;;8.45;1.50;;;17.20;59.40;;;;;;10463060;28;20032;-61
2021/03/20 09:49:52;;;;;;;11.15;2.42;;;17.20;59.50;;;;;;10482699;28;20029;-61
2021/03/20 09:54:53;;;;;;;14.45;2.67;;;17.20;59.50;;;;;;10453572;28;20389;-61
2021/03/20 09:59:54;;;;;;;9.05;1.30;;;17.20;59.60;;;;;;10480912;28;20067;-61
2021/03/20 10:04:59;;;;;;;10.05;2.45;;;17.30;59.60;;;;;;10456065;28;20052;-60
2021/03/20 10:10:13;;;;;;;5.32;1.50;;;17.30;59.60;;;;;;10459329;28;20058;-60
2021/03/20 10:15:31;;;;;;;9.82;1.95;;;17.20;59.50;;;;;;10490683;28;20443;-60
2021/03/20 10:20:43;;;;;;;6.72;1.92;;;17.30;59.50;;;;;;10476009;28;20412;-60
2021/03/20 10:25:51;;;;;;;6.18;2.13;;;17.30;59.60;;;;;;10437973;28;20120;-61
2021/03/20 10:31:06;;;;;;;3.42;2.17;;;17.30;59.60;;;;;;10468784;28;20034;-60
2021/03/20 10:36:26;;;;;;;6.28;1.88;;;17.30;59.60;;;;;;10462619;28;20037;-61
2021/03/20 10:41:34;;;;;;;4.75;1.42;;;17.30;59.50;;;;;;10453101;28;20039;-61
2021/03/20 10:46:38;;;;;;;4.88;1.58;;;17.30;59.50;;;;;;10453731;28;20037;-61
2021/03/20 10:51:41;;;;;;;6.22;1.65;;;17.30;59.50;;;;;;10479527;28;20071;-61
2021/03/20 10:56:43;;;;;;;3.20;1.52;;;17.30;59.50;;;;;;10494952;28;20473;-61
2021/03/20 11:01:44;;;;;;;4.25;1.20;;;17.20;59.50;;;;;;10466822;28;20116;-60
2021/03/20 11:06:57;;;;;;;7.13;2.25;;;17.30;59.60;;;;;;10500220;28;20358;-60
2021/03/20 11:12:05;;;;;;;4.53;1.17;;;17.20;59.60;;;;;;10464111;28;20071;-60
2021/03/20 11:17:09;;;;;;;4.07;1.20;;;17.30;59.60;;;;;;10452936;28;20084;-61
2021/03/20 11:22:38;;;;;;;4.72;1.00;;;17.30;59.60;;;;;;10475093;28;20040;-60
2021/03/20 11:27:40;;;;;;;6.70;1.53;;;17.30;59.50;;;;;;10470793;28;20040;-61
2021/03/20 11:32:44;;;;;;;2.35;0.98;;;17.30;59.40;;;;;;10459347;28;20025;-60
2021/03/20 11:37:46;;;;;;;2.00;0.93;;;17.30;59.40;;;;;;10454059;28;20032;-60
2021/03/20 11:42:54;;;;;;;4.15;1.05;;;17.30;59.40;;;;;;10480138;28;20064;-61
2021/03/20 11:47:58;;;;;;;3.28;1.27;;;17.40;59.40;;;;;;10489735;28;20067;-60
2021/03/20 11:53:41;;;;;;;4.43;1.63;;;17.40;59.30;;;;;;10458258;28;20067;-60
2021/03/20 11:58:52;;;;;;;4.05;1.05;;;17.40;59.90;;;;;;10459699;28;20029;-61
2021/03/20 12:03:55;;;;;;;2.17;0.70;;;17.40;59.30;;;;;;10483734;28;20048;-61
2021/03/20 12:08:59;;;;;;;3.78;0.85;;;17.40;59.30;;;;;;10494809;28;20113;-60
2021/03/20 12:14:00;;;;;;;2.20;0.80;;;17.40;59.30;;;;;;10495059;28;20433;-60
2021/03/20 12:19:13;;;;;;;3.25;1.45;;;17.40;59.30;;;;;;10493988;28;20124;-60
2021/03/20 12:24:23;;;;;;;3.35;0.93;;;17.40;59.30;;;;;;10459785;28;20434;-60
2021/03/20 12:29:39;;;;;;;2.08;0.80;;;17.40;59.30;;;;;;10460957;28;20033;-60
2021/03/20 12:34:40;;;;;;;2.08;1.05;;;17.40;59.30;;;;;;10479897;28;20107;-60
2021/03/20 12:39:40;;;;;;;1.75;0.75;;;17.40;59.30;;;;;;10465378;28;20036;-60
2021/03/20 12:44:50;;;;;;;1.98;0.73;;;17.50;59.40;;;;;;10478029;28;20072;-60
2021/03/20 12:49:51;;;;;;;1.90;0.85;;;17.50;59.40;;;;;;10458806;28;20044;-60
2021/03/20 12:54:56;;;;;;;3.30;0.90;;;17.50;59.30;;;;;;10471360;28;20516;-60
2021/03/20 12:59:57;;;;;;;3.17;0.80;;;17.50;59.30;;;;;;10500053;28;20035;-61
2021/03/20 13:04:58;;;;;;;2.25;0.73;;;17.50;59.30;;;;;;10491672;28;20039;-60
2021/03/20 13:09:59;;;;;;;2.25;0.85;;;17.50;59.30;;;;;;10478315;28;20393;-61
2021/03/20 13:15:00;;;;;;;3.67;0.98;;;17.60;59.30;;;;;;10457992;28;20112;-61
2021/03/20 13:20:00;;;;;;;1.70;0.90;;;17.50;59.30;;;;;;10477030;28;20123;-61
2021/03/20 13:25:03;;;;;;;2.55;0.63;;;17.50;59.30;;;;;;10498978;28;20094;-60
2021/03/20 13:30:04;;;;;;;2.28;1.17;;;17.50;59.30;;;;;;10465825;28;20040;-60
2021/03/20 13:35:06;;;;;;;1.10;0.63;;;17.50;59.30;;;;;;10457057;28;20392;-61
2021/03/20 13:40:08;;;;;;;1.80;0.70;;;17.50;60.00;;;;;;10481366;28;20032;-60
2021/03/20 13:45:12;;;;;;;1.25;0.60;;;17.50;59.30;;;;;;10498247;28;20469;-61
2021/03/20 13:50:14;;;;;;;4.20;1.33;;;17.40;59.40;;;;;;10464314;28;20039;-61
2021/03/20 13:55:15;;;;;;;2.15;0.50;;;17.40;59.50;;;;;;10497904;28;20043;-61
2021/03/20 14:00:16;;;;;;;1.58;0.80;;;17.30;59.50;;;;;;10464837;28;20347;-61
2021/03/20 14:05:17;;;;;;;1.92;0.95;;;17.30;59.60;;;;;;10455611;28;20040;-60
2021/03/20 14:10:47;;;;;;;2.15;0.80;;;17.30;59.70;;;;;;10456005;28;20028;-61
2021/03/20 14:15:48;;;;;;;3.07;0.77;;;17.20;59.70;;;;;;10478147;28;20365;-60
2021/03/20 14:20:53;;;;;;;2.65;0.60;;;17.20;59.80;;;;;;10456833;28;20037;-61
2021/03/20 14:25:56;;;;;;;1.77;0.60;;;17.20;59.80;;;;;;10454108;28;20071;-60
2021/03/20 14:31:02;;;;;;;1.00;0.50;;;17.20;59.80;;;;;;10483954;28;20419;-60
2021/03/20 14:36:08;;;;;;;1.20;0.57;;;17.20;59.90;;;;;;10464164;28;20032;-61
2021/03/20 14:41:09;;;;;;;1.63;0.55;;;17.10;59.80;;;;;;10485147;28;20485;-61
2021/03/20 14:46:09;;;;;;;1.58;0.50;;;17.10;59.90;;;;;;10489412;28;20063;-60
2021/03/20 14:51:10;;;;;;;1.15;0.55;;;17.10;59.90;;;;;;10459503;28;20489;-61
2021/03/20 14:56:11;;;;;;;3.72;0.88;;;17.00;59.90;;;;;;10454639;28;20036;-60
2021/03/20 15:01:11;;;;;;;1.30;0.73;;;17.00;59.90;;;;;;10479556;28;20073;-60
2021/03/20 15:06:12;;;;;;;1.17;0.70;;;17.00;59.90;;;;;;10486523;28;20039;-59
2021/03/20 15:11:13;;;;;;;0.88;0.60;;;17.00;60.00;;;;;;10482041;28;20110;-60
2021/03/20 15:16:14;;;;;;;1.33;0.60;;;16.90;60.00;;;;;;10496103;28;20056;-60
2021/03/20 15:21:21;;;;;;;1.23;0.50;;;16.90;60.00;;;;;;10466334;28;20036;-60
2021/03/20 15:26:24;;;;;;;0.50;0.45;;;16.90;60.00;;;;;;10491753;28;20078;-60
2021/03/20 15:31:26;;;;;;;0.88;0.60;;;16.90;60.00;;;;;;10473762;28;20108;-60
2021/03/20 15:36:27;;;;;;;0.98;0.40;;;16.90;59.90;;;;;;10461471;28;20057;-60
2021/03/20 15:41:28;;;;;;;0.82;0.43;;;17.00;59.80;;;;;;10481086;28;20569;-60
2021/03/20 15:46:29;;;;;;;1.30;0.60;;;17.00;59.70;;;;;;10502862;28;20111;-60
2021/03/20 15:51:30;;;;;;;0.90;0.70;;;17.00;59.60;;;;;;10477824;28;20060;-61
2021/03/20 15:56:31;;;;;;;0.85;0.32;;;17.00;59.50;;;;;;10459574;28;20037;-60
2021/03/20 16:01:32;;;;;;;1.95;0.50;;;17.10;59.50;;;;;;10474659;28;20066;-60
2021/03/20 16:06:33;;;;;;;2.13;0.40;;;17.10;59.50;;;;;;10464000;28;20116;-60
2021/03/20 16:11:33;;;;;;;0.75;0.50;;;17.10;59.50;;;;;;10476572;28;20507;-61
2021/03/20 16:16:35;;;;;;;1.23;0.60;;;17.10;59.30;;;;;;10497602;28;20510;-60
2021/03/20 16:21:37;;;;;;;0.85;0.40;;;17.10;59.30;;;;;;10484412;28;20032;-60
2021/03/20 16:26:37;;;;;;;2.05;0.57;;;17.00;59.30;;;;;;10459682;28;20037;-60
2021/03/20 16:31:38;;;;;;;0.90;0.60;;;17.00;59.30;;;;;;10467491;28;20495;-60
2021/03/20 16:36:39;;;;;;;0.52;0.30;;;17.10;59.30;;;;;;10460205;28;20366;-60
2021/03/20 16:41:40;;;;;;;3.13;0.70;;;17.10;59.10;;;;;;10468253;28;20503;-60
2021/03/20 16:46:41;;;;;;;1.08;0.50;;;17.10;59.10;;;;;;10473754;28;20037;-60
2021/03/20 16:51:41;;;;;;;1.67;0.50;;;17.10;59.10;;;;;;10489938;28;20052;-61
2021/03/20 16:56:42;;;;;;;0.55;0.40;;;17.10;59.00;;;;;;10458681;28;20430;-60
2021/03/20 17:01:43;;;;;;;0.77;0.40;;;17.20;58.80;;;;;;10459841;28;20120;-60
2021/03/20 17:06:45;;;;;;;1.48;0.40;;;17.20;58.90;;;;;;10499772;28;20056;-61
2021/03/20 17:11:47;;;;;;;0.82;0.50;;;17.20;58.90;;;;;;10488254;28;20442;-61
2021/03/20 17:16:48;;;;;;;0.88;0.52;;;17.10;58.80;;;;;;10457680;28;20404;-60
2021/03/20 17:21:49;;;;;;;0.55;0.40;;;17.10;58.70;;;;;;10464528;28;20036;-61
2021/03/20 17:26:49;;;;;;;0.80;0.30;;;17.10;58.50;;;;;;10498743;28;20025;-60
2021/03/20 17:31:50;;;;;;;0.60;0.40;;;17.20;58.70;;;;;;10487874;28;20071;-61
2021/03/20 17:36:51;;;;;;;1.63;0.30;;;17.20;58.30;;;;;;10457780;28;20032;-61
2021/03/20 17:41:51;;;;;;;1.00;0.40;;;17.20;58.30;;;;;;10456963;28;20060;-60
2021/03/20 17:46:52;;;;;;;1.10;0.50;;;17.20;58.50;;;;;;10455401;28;20043;-60
2021/03/20 17:51:53;;;;;;;0.68;0.43;;;17.20;58.50;;;;;;10448935;28;20033;-60
2021/03/20 17:56:54;;;;;;;7.50;1.38;;;17.20;58.30;;;;;;10445920;28;20478;-62
2021/03/20 18:01:55;;;;;;;4.63;0.77;;;17.20;58.70;;;;;;10455279;28;20122;-61
2021/03/20 18:06:55;;;;;;;5.18;1.75;;;17.30;58.80;;;;;;10447705;28;20128;-61
2021/03/20 18:11:56;;;;;;;7.97;1.65;;;17.30;58.30;;;;;;10460995;28;20016;-59
2021/03/20 18:16:57;;;;;;;2.85;1.15;;;17.40;58.00;;;;;;10451432;28;20131;-60
2021/03/20 18:21:58;;;;;;;8.70;2.17;;;17.40;58.80;;;;;;10449870;28;20077;-60
2021/03/20 18:26:59;;;;;;;8.13;1.75;;;17.50;59.40;;;;;;10455243;28;20051;-62
2021/03/20 18:31:59;;;;;;;6.38;1.80;;;17.50;59.40;;;;;;10475699;28;20517;-61
2021/03/20 18:37:00;;;;;;;5.85;1.50;;;17.50;59.20;;;;;;10453784;28;20433;-61
2021/03/20 18:42:01;;;;;;;6.57;1.00;;;17.50;59.10;;;;;;10454159;28;20032;-62
2021/03/20 18:47:01;;;;;;;4.53;0.95;;;17.40;58.90;;;;;;10453841;28;20029;-61
2021/03/20 18:52:02;;;;;;;5.93;1.60;;;17.40;59.00;;;;;;10483185;28;20024;-61
2021/03/20 18:57:03;;;;;;;6.43;1.20;;;17.40;59.20;;;;;;10475107;28;20044;-59
2021/03/20 19:02:04;;;;;;;4.68;1.13;;;17.40;59.10;;;;;;10466504;28;20025;-59
2021/03/20 19:07:06;;;;;;;8.27;1.35;;;17.40;59.20;;;;;;10469872;28;20031;-60
2021/03/20 19:12:07;;;;;;;6.63;1.20;;;17.40;59.10;;;;;;10458437;28;20017;-60
2021/03/20 19:17:10;;;;;;;13.25;1.55;;;17.40;59.10;;;;;;10464543;28;20103;-60
2021/03/20 19:22:11;;;;;;;7.25;1.15;;;17.40;59.10;;;;;;10441266;28;20029;-59
2021/03/20 19:27:11;;;;;;;3.40;1.25;;;17.40;59.20;;;;;;10463278;28;20560;-60
2021/03/20 19:32:12;;;;;;;3.65;1.20;;;17.40;59.30;;;;;;10460951;28;20033;-60
2021/03/20 19:37:13;;;;;;;6.60;1.27;;;17.40;59.30;;;;;;10460214;28;20063;-59
2021/03/20 19:42:14;;;;;;;5.38;1.00;;;17.40;59.30;;;;;;10462891;28;20457;-60
2021/03/20 19:47:15;;;;;;;2.28;0.70;;;17.40;59.40;;;;;;10457443;28;20033;-60
2021/03/20 19:52:15;;;;;;;5.15;1.08;;;17.40;60.10;;;;;;10459927;28;20095;-59
2021/03/20 19:57:17;;;;;;;4.47;1.48;;;17.40;60.00;;;;;;10462844;28;20021;-59
2021/03/20 20:02:19;;;;;;;6.35;1.50;;;17.40;59.40;;;;;;10459052;28;20079;-60
2021/03/20 20:07:20;;;;;;;3.10;0.77;;;17.40;59.50;;;;;;10453717;28;20025;-60
2021/03/20 20:12:20;;;;;;;5.07;1.10;;;17.40;59.50;;;;;;10468003;28;20433;-60
2021/03/20 20:17:21;;;;;;;2.40;0.73;;;17.50;59.60;;;;;;10458939;28;20134;-60
2021/03/20 20:22:22;;;;;;;3.03;0.95;;;17.50;59.60;;;;;;10462712;28;20052;-59
2021/03/20 20:27:22;;;;;;;4.78;1.10;;;17.50;59.70;;;;;;10459204;28;20029;-59
2021/03/20 20:32:23;;;;;;;2.80;0.93;;;17.50;59.70;;;;;;10467003;28;20048;-59
2021/03/20 20:37:24;;;;;;;5.00;1.00;;;17.50;59.80;;;;;;10456973;28;20052;-59
2021/03/20 20:42:25;;;;;;;8.40;1.15;;;17.50;60.40;;;;;;10473662;28;20039;-59
2021/03/20 20:47:25;;;;;;;2.88;0.85;;;17.50;59.60;;;;;;10487609;28;20025;-59
2021/03/20 20:52:26;;;;;;;3.97;1.23;;;17.50;59.50;;;;;;10476742;28;20035;-59
2021/03/20 20:57:27;;;;;;;4.40;1.00;;;17.50;59.30;;;;;;10499506;28;20028;-59
2021/03/20 21:02:28;;;;;;;3.80;0.70;;;17.50;59.30;;;;;;10474065;28;20055;-59
2021/03/20 21:07:28;;;;;;;3.95;0.98;;;17.40;59.10;;;;;;10480712;28;20119;-59
2021/03/20 21:12:29;;;;;;;2.15;0.80;;;17.50;59.10;;;;;;10499792;28;20124;-59
2021/03/20 21:17:32;;;;;;;1.67;0.73;;;17.40;59.00;;;;;;10473802;28;20496;-59
2021/03/20 21:22:33;;;;;;;1.40;0.75;;;17.40;58.90;;;;;;10457455;28;20032;-59
2021/03/20 21:27:33;;;;;;;2.58;0.82;;;17.40;58.90;;;;;;10459566;28;20526;-59
2021/03/20 21:32:34;;;;;;;2.60;0.60;;;17.40;58.90;;;;;;10496103;28;20540;-59
2021/03/20 21:37:36;;;;;;;2.90;0.68;;;17.40;58.90;;;;;;10455760;28;20028;-59
2021/03/20 21:42:37;;;;;;;5.20;0.80;;;17.30;58.70;;;;;;10456939;28;20053;-59
2021/03/20 21:47:38;;;;;;;1.55;0.70;;;17.40;58.70;;;;;;10462700;28;20119;-59
2021/03/20 21:52:40;;;;;;;3.42;0.98;;;17.40;58.60;;;;;;10484995;28;20039;-59
2021/03/20 21:57:40;;;;;;;1.92;0.82;;;17.40;58.50;;;;;;10483252;28;20469;-59
2021/03/20 22:02:41;;;;;;;2.08;0.65;;;17.40;58.50;;;;;;10456654;28;20064;-59
2021/03/20 22:07:42;;;;;;;2.38;0.95;;;17.40;58.40;;;;;;10454445;28;20041;-59
2021/03/20 22:12:43;;;;;;;1.05;0.47;;;17.40;58.30;;;;;;10495277;28;20389;-59
2021/03/20 22:17:46;;;;;;;2.28;0.90;;;17.40;58.30;;;;;;10469559;28;20040;-59
2021/03/20 22:22:46;;;;;;;1.05;0.50;;;17.40;58.20;;;;;;10483943;28;20032;-59
2021/03/20 22:27:48;;;;;;;1.20;0.50;;;17.40;58.20;;;;;;10470089;28;20112;-59
2021/03/20 22:32:49;;;;;;;1.48;0.73;;;17.40;58.10;;;;;;10455137;28;20033;-59
2021/03/20 22:37:50;;;;;;;1.35;0.70;;;17.40;58.00;;;;;;10473828;28;20037;-59
2021/03/20 22:42:51;;;;;;;2.03;0.70;;;17.40;58.00;;;;;;10456186;28;20116;-59
2021/03/20 22:47:52;;;;;;;1.33;0.60;;;17.40;58.00;;;;;;10476483;28;20123;-59
2021/03/20 22:52:52;;;;;;;1.75;0.63;;;17.40;57.90;;;;;;10496232;28;20016;-59
2021/03/20 22:57:53;;;;;;;1.95;0.70;;;17.50;57.90;;;;;;10470548;28;20028;-59
2021/03/20 23:02:54;;;;;;;1.42;0.70;;;17.50;57.90;;;;;;10493147;28;20040;-59
2021/03/20 23:07:56;;;;;;;1.88;0.60;;;17.50;57.90;;;;;;10473275;28;20064;-59
2021/03/20 23:13:01;;;;;;;0.47;0.40;;;17.40;57.70;;;;;;10454393;28;20112;-59
2021/03/20 23:18:07;;;;;;;1.95;0.65;;;17.50;57.70;;;;;;10462485;28;20075;-59
2021/03/20 23:23:08;;;;;;;2.10;0.50;;;17.50;57.70;;;;;;10452936;28;20027;-59
2021/03/20 23:28:11;;;;;;;0.57;0.40;;;17.50;57.60;;;;;;10458801;28;20481;-59
2021/03/20 23:33:12;;;;;;;1.25;0.68;;;17.50;57.60;;;;;;10487987;28;20021;-59
2021/03/20 23:38:15;;;;;;;1.27;0.47;;;17.50;57.60;;;;;;10462361;28;20032;-58
2021/03/20 23:43:16;;;;;;;2.17;0.75;;;17.50;57.60;;;;;;10480807;28;20040;-59
2021/03/20 23:48:17;;;;;;;1.67;0.68;;;17.50;57.60;;;;;;10470799;28;20032;-59
2021/03/20 23:53:18;;;;;;;0.93;0.40;;;17.50;57.50;;;;;;10459972;28;20047;-59
2021/03/20 23:58:18;;;;;;;1.48;0.40;;;17.50;57.50;;;;;;10461973;28;20064;-59
